sensor_id;sensor_type;location;lat;lon;timestamp;P1;durP1;ratioP1;P2;durP2;ratioP2
31724;SDS011;18306;40.960;14.836;2022-09-09T00:02:08;9.95;;;3.53;;
31724;SDS011;18306;40.960;14.836;2022-09-09T00:07:43;7.05;;;2.60;;
31724;SDS011;18306;40.960;14.836;2022-09-09T00:13:42;8.40;;;3.97;;
31724;SDS011;18306;40.960;14.836;2022-09-09T00:16:17;5.75;;;3.13;;
31724;SDS011;18306;40.960;14.836;2022-09-09T00:21:39;12.25;;;3.13;;
31724;SDS011;18306;40.960;14.836;2022-09-09T00:24:29;7.75;;;3.10;;
31724;SDS011;18306;40.960;14.836;2022-09-09T00:27:06;5.97;;;3.30;;
31724;SDS011;18306;40.960;14.836;2022-09-09T00:29:47;9.18;;;2.70;;
31724;SDS011;18306;40.960;14.836;2022-09-09T00:32:21;14.55;;;3.15;;
31724;SDS011;18306;40.960;14.836;2022-09-09T00:34:50;6.95;;;3.85;;
31724;SDS011;18306;40.960;14.836;2022-09-09T00:37:21;12.05;;;3.58;;
31724;SDS011;18306;40.960;14.836;2022-09-09T00:39:57;7.15;;;3.17;;
31724;SDS011;18306;40.960;14.836;2022-09-09T00:42:46;8.70;;;4.25;;
31724;SDS011;18306;40.960;14.836;2022-09-09T00:57:38;9.65;;;2.85;;
31724;SDS011;18306;40.960;14.836;2022-09-09T01:00:26;7.57;;;3.22;;
31724;SDS011;18306;40.960;14.836;2022-09-09T01:05:56;15.82;;;3.65;;
31724;SDS011;18306;40.960;14.836;2022-09-09T01:16:59;11.73;;;3.17;;
31724;SDS011;18306;40.960;14.836;2022-09-09T01:22:22;8.77;;;4.55;;
31724;SDS011;18306;40.960;14.836;2022-09-09T01:28:41;7.07;;;4.63;;
31724;SDS011;18306;40.960;14.836;2022-09-09T01:31:18;19.38;;;5.65;;
31724;SDS011;18306;40.960;14.836;2022-09-09T01:34:12;20.40;;;6.60;;
31724;SDS011;18306;40.960;14.836;2022-09-09T01:39:27;11.45;;;4.88;;
31724;SDS011;18306;40.960;14.836;2022-09-09T01:42:05;14.75;;;6.10;;
31724;SDS011;18306;40.960;14.836;2022-09-09T01:44:35;20.73;;;6.40;;
31724;SDS011;18306;40.960;14.836;2022-09-09T01:47:10;11.55;;;5.68;;
31724;SDS011;18306;40.960;14.836;2022-09-09T01:49:56;17.15;;;5.28;;
31724;SDS011;18306;40.960;14.836;2022-09-09T01:52:26;5.28;;;4.43;;
31724;SDS011;18306;40.960;14.836;2022-09-09T01:54:54;19.92;;;5.75;;
31724;SDS011;18306;40.960;14.836;2022-09-09T02:00:05;9.93;;;5.68;;
31724;SDS011;18306;40.960;14.836;2022-09-09T02:03:05;12.27;;;5.60;;
31724;SDS011;18306;40.960;14.836;2022-09-09T02:05:44;23.33;;;6.85;;
31724;SDS011;18306;40.960;14.836;2022-09-09T02:08:29;8.32;;;5.20;;
31724;SDS011;18306;40.960;14.836;2022-09-09T02:11:20;15.20;;;6.20;;
31724;SDS011;18306;40.960;14.836;2022-09-09T02:14:18;12.75;;;4.93;;
31724;SDS011;18306;40.960;14.836;2022-09-09T02:16:55;11.93;;;4.30;;
31724;SDS011;18306;40.960;14.836;2022-09-09T02:19:46;9.10;;;4.22;;
31724;SDS011;18306;40.960;14.836;2022-09-09T02:22:25;15.13;;;5.30;;
31724;SDS011;18306;40.960;14.836;2022-09-09T02:24:54;8.27;;;4.70;;
31724;SDS011;18306;40.960;14.836;2022-09-09T02:27:31;7.68;;;4.72;;
31724;SDS011;18306;40.960;14.836;2022-09-09T02:29:59;16.90;;;5.63;;
31724;SDS011;18306;40.960;14.836;2022-09-09T02:32:39;10.85;;;4.95;;
31724;SDS011;18306;40.960;14.836;2022-09-09T02:35:16;9.77;;;4.80;;
31724;SDS011;18306;40.960;14.836;2022-09-09T02:37:46;6.65;;;3.40;;
31724;SDS011;18306;40.960;14.836;2022-09-09T02:40:17;18.83;;;4.85;;
31724;SDS011;18306;40.960;14.836;2022-09-09T02:42:54;5.28;;;3.95;;
31724;SDS011;18306;40.960;14.836;2022-09-09T02:45:25;15.05;;;3.65;;
31724;SDS011;18306;40.960;14.836;2022-09-09T02:50:58;20.38;;;5.13;;
31724;SDS011;18306;40.960;14.836;2022-09-09T02:56:35;9.23;;;5.45;;
31724;SDS011;18306;40.960;14.836;2022-09-09T02:59:09;7.85;;;4.63;;
31724;SDS011;18306;40.960;14.836;2022-09-09T03:01:38;7.82;;;4.68;;
31724;SDS011;18306;40.960;14.836;2022-09-09T03:04:07;11.85;;;4.53;;
31724;SDS011;18306;40.960;14.836;2022-09-09T03:06:34;13.65;;;6.00;;
31724;SDS011;18306;40.960;14.836;2022-09-09T03:09:11;8.98;;;4.88;;
31724;SDS011;18306;40.960;14.836;2022-09-09T03:11:39;14.80;;;5.03;;
31724;SDS011;18306;40.960;14.836;2022-09-09T03:14:07;8.15;;;3.47;;
31724;SDS011;18306;40.960;14.836;2022-09-09T03:16:36;8.50;;;4.55;;
31724;SDS011;18306;40.960;14.836;2022-09-09T03:19:03;8.95;;;4.45;;
31724;SDS011;18306;40.960;14.836;2022-09-09T03:21:31;20.40;;;4.90;;
31724;SDS011;18306;40.960;14.836;2022-09-09T03:23:59;5.85;;;4.07;;
31724;SDS011;18306;40.960;14.836;2022-09-09T03:26:37;12.25;;;4.15;;
31724;SDS011;18306;40.960;14.836;2022-09-09T03:29:09;17.05;;;3.80;;
31724;SDS011;18306;40.960;14.836;2022-09-09T03:31:37;13.27;;;4.43;;
31724;SDS011;18306;40.960;14.836;2022-09-09T03:34:05;12.88;;;4.25;;
31724;SDS011;18306;40.960;14.836;2022-09-09T03:36:34;5.45;;;2.72;;
31724;SDS011;18306;40.960;14.836;2022-09-09T03:39:01;3.63;;;2.50;;
31724;SDS011;18306;40.960;14.836;2022-09-09T03:41:30;10.07;;;3.55;;
31724;SDS011;18306;40.960;14.836;2022-09-09T03:44:00;7.68;;;3.58;;
31724;SDS011;18306;40.960;14.836;2022-09-09T03:46:31;9.23;;;3.30;;
31724;SDS011;18306;40.960;14.836;2022-09-09T03:49:00;17.60;;;3.53;;
31724;SDS011;18306;40.960;14.836;2022-09-09T03:51:33;9.82;;;3.30;;
31724;SDS011;18306;40.960;14.836;2022-09-09T03:54:06;5.75;;;3.60;;
31724;SDS011;18306;40.960;14.836;2022-09-09T03:56:36;4.88;;;2.78;;
31724;SDS011;18306;40.960;14.836;2022-09-09T03:59:04;8.50;;;2.80;;
31724;SDS011;18306;40.960;14.836;2022-09-09T04:01:32;9.30;;;2.88;;
31724;SDS011;18306;40.960;14.836;2022-09-09T04:04:00;11.52;;;3.35;;
31724;SDS011;18306;40.960;14.836;2022-09-09T04:06:28;10.45;;;3.15;;
31724;SDS011;18306;40.960;14.836;2022-09-09T04:08:56;6.50;;;3.25;;
31724;SDS011;18306;40.960;14.836;2022-09-09T04:11:25;12.10;;;2.83;;
31724;SDS011;18306;40.960;14.836;2022-09-09T04:13:57;8.50;;;3.30;;
31724;SDS011;18306;40.960;14.836;2022-09-09T04:16:30;5.72;;;2.30;;
31724;SDS011;18306;40.960;14.836;2022-09-09T04:18:57;7.10;;;2.35;;
31724;SDS011;18306;40.960;14.836;2022-09-09T04:21:26;15.55;;;2.97;;
31724;SDS011;18306;40.960;14.836;2022-09-09T04:23:54;15.50;;;3.47;;
31724;SDS011;18306;40.960;14.836;2022-09-09T04:26:21;8.75;;;3.63;;
31724;SDS011;18306;40.960;14.836;2022-09-09T04:28:49;6.80;;;2.97;;
31724;SDS011;18306;40.960;14.836;2022-09-09T04:31:19;5.47;;;2.83;;
31724;SDS011;18306;40.960;14.836;2022-09-09T04:33:51;6.25;;;2.72;;
31724;SDS011;18306;40.960;14.836;2022-09-09T04:36:19;5.35;;;2.33;;
31724;SDS011;18306;40.960;14.836;2022-09-09T04:38:49;5.03;;;2.75;;
31724;SDS011;18306;40.960;14.836;2022-09-09T04:41:16;4.88;;;2.47;;
31724;SDS011;18306;40.960;14.836;2022-09-09T04:43:46;11.77;;;3.10;;
31724;SDS011;18306;40.960;14.836;2022-09-09T04:46:15;10.63;;;2.20;;
31724;SDS011;18306;40.960;14.836;2022-09-09T04:48:48;6.43;;;3.22;;
31724;SDS011;18306;40.960;14.836;2022-09-09T04:51:16;6.93;;;2.15;;
31724;SDS011;18306;40.960;14.836;2022-09-09T04:53:46;19.15;;;3.17;;
31724;SDS011;18306;40.960;14.836;2022-09-09T04:56:16;12.68;;;3.40;;
31724;SDS011;18306;40.960;14.836;2022-09-09T04:58:51;7.28;;;3.40;;
31724;SDS011;18306;40.960;14.836;2022-09-09T05:01:21;6.40;;;3.85;;
31724;SDS011;18306;40.960;14.836;2022-09-09T05:03:52;7.30;;;2.78;;
31724;SDS011;18306;40.960;14.836;2022-09-09T05:06:22;13.02;;;2.97;;
31724;SDS011;18306;40.960;14.836;2022-09-09T05:08:53;4.40;;;2.92;;
31724;SDS011;18306;40.960;14.836;2022-09-09T05:11:25;14.77;;;3.13;;
31724;SDS011;18306;40.960;14.836;2022-09-09T05:16:25;3.92;;;2.20;;
31724;SDS011;18306;40.960;14.836;2022-09-09T05:18:53;9.27;;;3.20;;
31724;SDS011;18306;40.960;14.836;2022-09-09T05:21:20;12.75;;;2.88;;
31724;SDS011;18306;40.960;14.836;2022-09-09T05:23:50;12.52;;;2.03;;
31724;SDS011;18306;40.960;14.836;2022-09-09T05:26:19;11.30;;;3.38;;
31724;SDS011;18306;40.960;14.836;2022-09-09T05:28:50;5.30;;;3.25;;
31724;SDS011;18306;40.960;14.836;2022-09-09T05:31:18;10.13;;;2.85;;
31724;SDS011;18306;40.960;14.836;2022-09-09T05:33:48;6.30;;;2.53;;
31724;SDS011;18306;40.960;14.836;2022-09-09T05:36:17;4.50;;;2.20;;
31724;SDS011;18306;40.960;14.836;2022-09-09T05:38:48;6.47;;;2.28;;
31724;SDS011;18306;40.960;14.836;2022-09-09T05:41:16;9.07;;;3.22;;
31724;SDS011;18306;40.960;14.836;2022-09-09T05:43:45;11.32;;;3.00;;
31724;SDS011;18306;40.960;14.836;2022-09-09T05:46:16;7.97;;;3.03;;
31724;SDS011;18306;40.960;14.836;2022-09-09T05:48:47;10.65;;;2.15;;
31724;SDS011;18306;40.960;14.836;2022-09-09T05:51:24;9.40;;;2.97;;
31724;SDS011;18306;40.960;14.836;2022-09-09T05:53:55;5.82;;;2.75;;
31724;SDS011;18306;40.960;14.836;2022-09-09T05:56:29;9.88;;;2.53;;
31724;SDS011;18306;40.960;14.836;2022-09-09T05:58:58;3.50;;;2.38;;
31724;SDS011;18306;40.960;14.836;2022-09-09T06:01:34;5.53;;;2.75;;
31724;SDS011;18306;40.960;14.836;2022-09-09T06:04:08;6.60;;;2.35;;
31724;SDS011;18306;40.960;14.836;2022-09-09T06:06:36;9.00;;;2.92;;
31724;SDS011;18306;40.960;14.836;2022-09-09T06:09:11;10.02;;;3.10;;
31724;SDS011;18306;40.960;14.836;2022-09-09T06:11:42;15.20;;;3.22;;
31724;SDS011;18306;40.960;14.836;2022-09-09T06:14:11;13.65;;;2.85;;
31724;SDS011;18306;40.960;14.836;2022-09-09T06:16:40;9.10;;;2.55;;
31724;SDS011;18306;40.960;14.836;2022-09-09T06:19:22;9.07;;;3.50;;
31724;SDS011;18306;40.960;14.836;2022-09-09T06:21:50;6.30;;;2.72;;
31724;SDS011;18306;40.960;14.836;2022-09-09T06:24:26;17.60;;;3.95;;
31724;SDS011;18306;40.960;14.836;2022-09-09T06:27:03;7.78;;;3.25;;
31724;SDS011;18306;40.960;14.836;2022-09-09T06:29:36;10.68;;;3.55;;
31724;SDS011;18306;40.960;14.836;2022-09-09T06:32:03;9.15;;;3.40;;
31724;SDS011;18306;40.960;14.836;2022-09-09T06:34:31;9.73;;;3.30;;
31724;SDS011;18306;40.960;14.836;2022-09-09T06:36:59;20.05;;;3.72;;
31724;SDS011;18306;40.960;14.836;2022-09-09T06:39:34;14.65;;;3.63;;
31724;SDS011;18306;40.960;14.836;2022-09-09T06:42:01;13.70;;;3.50;;
31724;SDS011;18306;40.960;14.836;2022-09-09T06:44:50;29.00;;;4.47;;
31724;SDS011;18306;40.960;14.836;2022-09-09T06:47:28;10.50;;;2.88;;
31724;SDS011;18306;40.960;14.836;2022-09-09T06:49:58;6.80;;;1.98;;
31724;SDS011;18306;40.960;14.836;2022-09-09T06:52:25;16.60;;;2.45;;
31724;SDS011;18306;40.960;14.836;2022-09-09T06:54:53;0.80;;;0.60;;
31724;SDS011;18306;40.960;14.836;2022-09-09T06:57:21;3.90;;;1.20;;
31724;SDS011;18306;40.960;14.836;2022-09-09T06:59:48;0.88;;;0.75;;
31724;SDS011;18306;40.960;14.836;2022-09-09T07:02:16;1.95;;;0.95;;
31724;SDS011;18306;40.960;14.836;2022-09-09T07:04:43;1.00;;;0.77;;
31724;SDS011;18306;40.960;14.836;2022-09-09T07:07:11;3.83;;;1.73;;
31724;SDS011;18306;40.960;14.836;2022-09-09T07:09:40;9.05;;;1.33;;
31724;SDS011;18306;40.960;14.836;2022-09-09T07:12:09;4.97;;;1.35;;
31724;SDS011;18306;40.960;14.836;2022-09-09T07:14:41;7.07;;;1.83;;
31724;SDS011;18306;40.960;14.836;2022-09-09T07:17:09;3.15;;;1.90;;
31724;SDS011;18306;40.960;14.836;2022-09-09T07:19:39;3.00;;;1.95;;
31724;SDS011;18306;40.960;14.836;2022-09-09T07:22:08;3.75;;;1.10;;
31724;SDS011;18306;40.960;14.836;2022-09-09T07:24:38;6.82;;;1.58;;
31724;SDS011;18306;40.960;14.836;2022-09-09T07:27:05;4.43;;;1.48;;
31724;SDS011;18306;40.960;14.836;2022-09-09T07:29:33;2.08;;;1.33;;
31724;SDS011;18306;40.960;14.836;2022-09-09T07:32:00;2.30;;;1.45;;
31724;SDS011;18306;40.960;14.836;2022-09-09T07:34:33;4.30;;;1.57;;
31724;SDS011;18306;40.960;14.836;2022-09-09T07:37:02;12.07;;;1.83;;
31724;SDS011;18306;40.960;14.836;2022-09-09T07:39:30;7.25;;;2.22;;
31724;SDS011;18306;40.960;14.836;2022-09-09T07:41:57;3.60;;;1.55;;
31724;SDS011;18306;40.960;14.836;2022-09-09T07:44:26;4.30;;;1.65;;
31724;SDS011;18306;40.960;14.836;2022-09-09T07:47:04;2.53;;;1.58;;
31724;SDS011;18306;40.960;14.836;2022-09-09T07:49:50;1.55;;;1.15;;
31724;SDS011;18306;40.960;14.836;2022-09-09T07:52:23;1.67;;;1.20;;
31724;SDS011;18306;40.960;14.836;2022-09-09T07:54:55;13.25;;;1.65;;
31724;SDS011;18306;40.960;14.836;2022-09-09T07:57:23;11.10;;;2.95;;
31724;SDS011;18306;40.960;14.836;2022-09-09T07:59:52;11.48;;;2.17;;
31724;SDS011;18306;40.960;14.836;2022-09-09T08:02:23;3.40;;;1.60;;
31724;SDS011;18306;40.960;14.836;2022-09-09T08:04:54;3.40;;;1.05;;
31724;SDS011;18306;40.960;14.836;2022-09-09T08:07:23;2.17;;;1.27;;
31724;SDS011;18306;40.960;14.836;2022-09-09T08:09:54;7.82;;;1.63;;
31724;SDS011;18306;40.960;14.836;2022-09-09T08:12:26;1.88;;;1.20;;
31724;SDS011;18306;40.960;14.836;2022-09-09T08:14:54;3.50;;;1.08;;
31724;SDS011;18306;40.960;14.836;2022-09-09T08:17:21;16.80;;;1.85;;
31724;SDS011;18306;40.960;14.836;2022-09-09T08:19:49;3.97;;;1.70;;
31724;SDS011;18306;40.960;14.836;2022-09-09T08:22:21;11.55;;;1.83;;
31724;SDS011;18306;40.960;14.836;2022-09-09T08:24:49;5.40;;;2.05;;
31724;SDS011;18306;40.960;14.836;2022-09-09T08:27:20;5.20;;;1.65;;
31724;SDS011;18306;40.960;14.836;2022-09-09T08:29:48;2.38;;;1.08;;
31724;SDS011;18306;40.960;14.836;2022-09-09T08:32:16;2.65;;;1.50;;
31724;SDS011;18306;40.960;14.836;2022-09-09T08:34:45;4.45;;;1.98;;
31724;SDS011;18306;40.960;14.836;2022-09-09T08:37:19;3.30;;;1.17;;
31724;SDS011;18306;40.960;14.836;2022-09-09T08:39:46;0.93;;;0.82;;
31724;SDS011;18306;40.960;14.836;2022-09-09T08:42:20;4.78;;;1.83;;
31724;SDS011;18306;40.960;14.836;2022-09-09T08:47:38;2.33;;;1.42;;
31724;SDS011;18306;40.960;14.836;2022-09-09T08:50:38;2.33;;;1.25;;
31724;SDS011;18306;40.960;14.836;2022-09-09T08:53:21;3.85;;;1.75;;
31724;SDS011;18306;40.960;14.836;2022-09-09T08:58:32;2.58;;;1.40;;
31724;SDS011;18306;40.960;14.836;2022-09-09T09:12:39;2.70;;;1.25;;
31724;SDS011;18306;40.960;14.836;2022-09-09T09:15:18;4.57;;;2.42;;
31724;SDS011;18306;40.960;14.836;2022-09-09T09:18:10;9.98;;;1.23;;
31724;SDS011;18306;40.960;14.836;2022-09-09T09:23:29;8.00;;;1.95;;
31724;SDS011;18306;40.960;14.836;2022-09-09T09:26:10;6.70;;;1.85;;
31724;SDS011;18306;40.960;14.836;2022-09-09T09:28:39;2.13;;;1.27;;
31724;SDS011;18306;40.960;14.836;2022-09-09T09:31:14;3.80;;;1.63;;
31724;SDS011;18306;40.960;14.836;2022-09-09T09:33:52;1.52;;;1.13;;
31724;SDS011;18306;40.960;14.836;2022-09-09T09:36:46;3.08;;;1.77;;
31724;SDS011;18306;40.960;14.836;2022-09-09T09:39:34;1.30;;;1.20;;
31724;SDS011;18306;40.960;14.836;2022-09-09T09:50:55;8.50;;;2.42;;
31724;SDS011;18306;40.960;14.836;2022-09-09T09:53:31;9.35;;;2.80;;
31724;SDS011;18306;40.960;14.836;2022-09-09T09:56:09;6.88;;;2.13;;
31724;SDS011;18306;40.960;14.836;2022-09-09T10:01:22;4.05;;;2.35;;
31724;SDS011;18306;40.960;14.836;2022-09-09T10:04:16;11.25;;;2.50;;
31724;SDS011;18306;40.960;14.836;2022-09-09T10:06:49;8.63;;;2.22;;
31724;SDS011;18306;40.960;14.836;2022-09-09T10:09:23;8.80;;;1.98;;
31724;SDS011;18306;40.960;14.836;2022-09-09T10:17:26;6.18;;;2.42;;
31724;SDS011;18306;40.960;14.836;2022-09-09T10:20:41;7.85;;;1.90;;
31724;SDS011;18306;40.960;14.836;2022-09-09T10:27:11;6.30;;;1.98;;
31724;SDS011;18306;40.960;14.836;2022-09-09T10:32:38;4.80;;;2.17;;
31724;SDS011;18306;40.960;14.836;2022-09-09T10:35:15;7.65;;;1.95;;
31724;SDS011;18306;40.960;14.836;2022-09-09T10:37:58;2.83;;;2.25;;
31724;SDS011;18306;40.960;14.836;2022-09-09T10:40:43;9.45;;;2.53;;
31724;SDS011;18306;40.960;14.836;2022-09-09T10:43:31;10.90;;;2.53;;
31724;SDS011;18306;40.960;14.836;2022-09-09T10:46:27;7.50;;;2.28;;
31724;SDS011;18306;40.960;14.836;2022-09-09T10:49:23;6.00;;;2.17;;
31724;SDS011;18306;40.960;14.836;2022-09-09T10:55:29;9.75;;;1.83;;
31724;SDS011;18306;40.960;14.836;2022-09-09T10:58:05;10.45;;;2.88;;
31724;SDS011;18306;40.960;14.836;2022-09-09T11:00:38;5.63;;;3.00;;
31724;SDS011;18306;40.960;14.836;2022-09-09T11:03:15;3.25;;;2.33;;
31724;SDS011;18306;40.960;14.836;2022-09-09T11:06:00;9.90;;;2.25;;
31724;SDS011;18306;40.960;14.836;2022-09-09T11:08:29;5.85;;;2.65;;
31724;SDS011;18306;40.960;14.836;2022-09-09T11:14:22;3.70;;;2.13;;
31724;SDS011;18306;40.960;14.836;2022-09-09T11:17:03;12.15;;;1.80;;
31724;SDS011;18306;40.960;14.836;2022-09-09T11:19:43;8.25;;;3.38;;
31724;SDS011;18306;40.960;14.836;2022-09-09T11:22:19;7.47;;;2.28;;
31724;SDS011;18306;40.960;14.836;2022-09-09T11:27:36;9.18;;;2.28;;
31724;SDS011;18306;40.960;14.836;2022-09-09T11:30:30;3.00;;;1.92;;
31724;SDS011;18306;40.960;14.836;2022-09-09T11:38:54;10.57;;;2.67;;
31724;SDS011;18306;40.960;14.836;2022-09-09T11:41:42;9.82;;;3.25;;
31724;SDS011;18306;40.960;14.836;2022-09-09T11:44:15;8.65;;;2.92;;
31724;SDS011;18306;40.960;14.836;2022-09-09T11:47:03;11.23;;;3.28;;
31724;SDS011;18306;40.960;14.836;2022-09-09T11:50:06;11.02;;;2.72;;
31724;SDS011;18306;40.960;14.836;2022-09-09T11:53:05;8.80;;;2.72;;
31724;SDS011;18306;40.960;14.836;2022-09-09T11:55:45;10.65;;;2.65;;
31724;SDS011;18306;40.960;14.836;2022-09-09T11:58:16;10.63;;;2.70;;
31724;SDS011;18306;40.960;14.836;2022-09-09T12:00:46;15.95;;;2.15;;
31724;SDS011;18306;40.960;14.836;2022-09-09T12:03:36;9.98;;;3.17;;
31724;SDS011;18306;40.960;14.836;2022-09-09T12:06:11;4.28;;;2.58;;
31724;SDS011;18306;40.960;14.836;2022-09-09T12:11:22;7.75;;;2.45;;
31724;SDS011;18306;40.960;14.836;2022-09-09T12:13:55;7.07;;;2.17;;
31724;SDS011;18306;40.960;14.836;2022-09-09T12:16:30;6.63;;;3.03;;
31724;SDS011;18306;40.960;14.836;2022-09-09T12:19:07;14.98;;;3.38;;
31724;SDS011;18306;40.960;14.836;2022-09-09T12:22:44;3.45;;;2.22;;
31724;SDS011;18306;40.960;14.836;2022-09-09T12:25:32;11.95;;;3.72;;
31724;SDS011;18306;40.960;14.836;2022-09-09T12:31:00;5.15;;;2.53;;
31724;SDS011;18306;40.960;14.836;2022-09-09T12:36:12;2.85;;;2.00;;
31724;SDS011;18306;40.960;14.836;2022-09-09T12:38:45;11.02;;;2.92;;
31724;SDS011;18306;40.960;14.836;2022-09-09T12:43:48;7.70;;;2.33;;
31724;SDS011;18306;40.960;14.836;2022-09-09T12:46:22;4.82;;;3.00;;
31724;SDS011;18306;40.960;14.836;2022-09-09T12:48:58;5.00;;;3.22;;
31724;SDS011;18306;40.960;14.836;2022-09-09T12:51:30;6.25;;;2.38;;
31724;SDS011;18306;40.960;14.836;2022-09-09T12:53:59;5.63;;;2.33;;
31724;SDS011;18306;40.960;14.836;2022-09-09T12:56:28;6.65;;;1.83;;
31724;SDS011;18306;40.960;14.836;2022-09-09T12:58:58;6.78;;;2.65;;
31724;SDS011;18306;40.960;14.836;2022-09-09T13:01:28;10.75;;;2.35;;
31724;SDS011;18306;40.960;14.836;2022-09-09T13:04:33;6.90;;;2.55;;
31724;SDS011;18306;40.960;14.836;2022-09-09T13:07:07;7.22;;;2.72;;
31724;SDS011;18306;40.960;14.836;2022-09-09T13:09:36;11.82;;;2.78;;
31724;SDS011;18306;40.960;14.836;2022-09-09T13:12:04;6.03;;;2.67;;
31724;SDS011;18306;40.960;14.836;2022-09-09T13:14:47;6.05;;;2.90;;
31724;SDS011;18306;40.960;14.836;2022-09-09T13:17:25;17.40;;;3.33;;
31724;SDS011;18306;40.960;14.836;2022-09-09T13:19:57;4.93;;;2.90;;
31724;SDS011;18306;40.960;14.836;2022-09-09T13:27:38;3.95;;;1.63;;
31724;SDS011;18306;40.960;14.836;2022-09-09T13:30:19;11.50;;;2.65;;
31724;SDS011;18306;40.960;14.836;2022-09-09T13:35:45;13.70;;;2.70;;
31724;SDS011;18306;40.960;14.836;2022-09-09T13:38:20;6.05;;;1.98;;
31724;SDS011;18306;40.960;14.836;2022-09-09T13:40:59;8.07;;;2.00;;
31724;SDS011;18306;40.960;14.836;2022-09-09T13:43:35;8.43;;;2.67;;
31724;SDS011;18306;40.960;14.836;2022-09-09T13:46:25;7.20;;;2.33;;
31724;SDS011;18306;40.960;14.836;2022-09-09T13:48:57;10.98;;;3.25;;
31724;SDS011;18306;40.960;14.836;2022-09-09T13:51:32;8.00;;;2.42;;
31724;SDS011;18306;40.960;14.836;2022-09-09T13:54:04;12.30;;;3.20;;
31724;SDS011;18306;40.960;14.836;2022-09-09T13:56:33;6.05;;;2.67;;
31724;SDS011;18306;40.960;14.836;2022-09-09T13:59:02;14.85;;;2.88;;
31724;SDS011;18306;40.960;14.836;2022-09-09T14:01:30;11.23;;;2.58;;
31724;SDS011;18306;40.960;14.836;2022-09-09T14:03:58;17.13;;;2.35;;
31724;SDS011;18306;40.960;14.836;2022-09-09T14:06:25;8.90;;;2.67;;
31724;SDS011;18306;40.960;14.836;2022-09-09T14:08:52;5.47;;;2.15;;
31724;SDS011;18306;40.960;14.836;2022-09-09T14:11:21;11.45;;;2.67;;
31724;SDS011;18306;40.960;14.836;2022-09-09T14:13:49;11.07;;;1.88;;
31724;SDS011;18306;40.960;14.836;2022-09-09T14:16:16;20.13;;;1.90;;
31724;SDS011;18306;40.960;14.836;2022-09-09T14:18:45;8.93;;;1.83;;
31724;SDS011;18306;40.960;14.836;2022-09-09T14:21:13;9.52;;;1.27;;
31724;SDS011;18306;40.960;14.836;2022-09-09T14:23:41;7.38;;;2.28;;
31724;SDS011;18306;40.960;14.836;2022-09-09T14:26:09;3.50;;;1.80;;
31724;SDS011;18306;40.960;14.836;2022-09-09T14:28:37;4.70;;;1.70;;
31724;SDS011;18306;40.960;14.836;2022-09-09T14:31:07;3.40;;;1.52;;
31724;SDS011;18306;40.960;14.836;2022-09-09T14:36:13;5.25;;;1.30;;
31724;SDS011;18306;40.960;14.836;2022-09-09T14:38:41;4.45;;;1.73;;
31724;SDS011;18306;40.960;14.836;2022-09-09T14:41:13;3.88;;;1.77;;
31724;SDS011;18306;40.960;14.836;2022-09-09T14:43:47;7.57;;;1.73;;
31724;SDS011;18306;40.960;14.836;2022-09-09T14:46:16;4.30;;;1.63;;
31724;SDS011;18306;40.960;14.836;2022-09-09T14:48:46;6.53;;;2.17;;
31724;SDS011;18306;40.960;14.836;2022-09-09T14:51:18;5.90;;;2.08;;
31724;SDS011;18306;40.960;14.836;2022-09-09T14:53:50;2.95;;;1.58;;
31724;SDS011;18306;40.960;14.836;2022-09-09T14:56:20;10.23;;;2.08;;
31724;SDS011;18306;40.960;14.836;2022-09-09T14:58:49;10.63;;;2.65;;
31724;SDS011;18306;40.960;14.836;2022-09-09T15:01:19;11.27;;;2.65;;
31724;SDS011;18306;40.960;14.836;2022-09-09T15:04:01;9.10;;;2.17;;
31724;SDS011;18306;40.960;14.836;2022-09-09T15:06:37;3.35;;;1.90;;
31724;SDS011;18306;40.960;14.836;2022-09-09T15:09:05;3.25;;;1.48;;
31724;SDS011;18306;40.960;14.836;2022-09-09T15:11:34;13.63;;;2.88;;
31724;SDS011;18306;40.960;14.836;2022-09-09T15:14:04;12.25;;;1.83;;
31724;SDS011;18306;40.960;14.836;2022-09-09T15:16:32;11.00;;;2.35;;
31724;SDS011;18306;40.960;14.836;2022-09-09T15:19:00;19.98;;;2.28;;
31724;SDS011;18306;40.960;14.836;2022-09-09T15:21:30;12.60;;;2.03;;
31724;SDS011;18306;40.960;14.836;2022-09-09T15:24:07;3.38;;;2.33;;
31724;SDS011;18306;40.960;14.836;2022-09-09T15:26:35;2.42;;;1.85;;
31724;SDS011;18306;40.960;14.836;2022-09-09T15:29:04;5.55;;;2.20;;
31724;SDS011;18306;40.960;14.836;2022-09-09T15:31:36;6.15;;;2.05;;
31724;SDS011;18306;40.960;14.836;2022-09-09T15:34:04;8.13;;;2.30;;
31724;SDS011;18306;40.960;14.836;2022-09-09T15:36:34;3.58;;;2.00;;
31724;SDS011;18306;40.960;14.836;2022-09-09T15:39:09;7.82;;;2.15;;
31724;SDS011;18306;40.960;14.836;2022-09-09T15:41:42;9.75;;;2.22;;
31724;SDS011;18306;40.960;14.836;2022-09-09T15:44:11;7.70;;;2.60;;
31724;SDS011;18306;40.960;14.836;2022-09-09T15:46:40;7.13;;;2.05;;
31724;SDS011;18306;40.960;14.836;2022-09-09T15:49:13;10.35;;;2.35;;
31724;SDS011;18306;40.960;14.836;2022-09-09T15:51:46;9.70;;;2.00;;
31724;SDS011;18306;40.960;14.836;2022-09-09T15:54:17;6.82;;;1.65;;
31724;SDS011;18306;40.960;14.836;2022-09-09T15:56:47;5.70;;;1.60;;
31724;SDS011;18306;40.960;14.836;2022-09-09T15:59:17;9.13;;;1.98;;
31724;SDS011;18306;40.960;14.836;2022-09-09T16:01:45;4.47;;;1.25;;
31724;SDS011;18306;40.960;14.836;2022-09-09T16:04:12;3.75;;;1.60;;
31724;SDS011;18306;40.960;14.836;2022-09-09T16:06:39;2.50;;;1.17;;
31724;SDS011;18306;40.960;14.836;2022-09-09T16:09:07;7.30;;;1.60;;
31724;SDS011;18306;40.960;14.836;2022-09-09T16:11:36;3.65;;;1.65;;
31724;SDS011;18306;40.960;14.836;2022-09-09T16:14:05;3.92;;;1.30;;
31724;SDS011;18306;40.960;14.836;2022-09-09T16:16:34;5.15;;;1.52;;
31724;SDS011;18306;40.960;14.836;2022-09-09T16:19:03;2.40;;;1.27;;
31724;SDS011;18306;40.960;14.836;2022-09-09T16:21:35;2.97;;;1.20;;
31724;SDS011;18306;40.960;14.836;2022-09-09T16:24:04;2.55;;;1.42;;
31724;SDS011;18306;40.960;14.836;2022-09-09T16:26:34;1.23;;;1.10;;
31724;SDS011;18306;40.960;14.836;2022-09-09T16:29:02;2.05;;;1.23;;
31724;SDS011;18306;40.960;14.836;2022-09-09T16:31:30;3.72;;;1.20;;
31724;SDS011;18306;40.960;14.836;2022-09-09T16:34:01;8.73;;;1.20;;
31724;SDS011;18306;40.960;14.836;2022-09-09T16:36:30;6.60;;;1.85;;
31724;SDS011;18306;40.960;14.836;2022-09-09T16:39:01;8.70;;;1.75;;
31724;SDS011;18306;40.960;14.836;2022-09-09T16:41:31;2.53;;;1.40;;
31724;SDS011;18306;40.960;14.836;2022-09-09T16:44:00;1.60;;;1.10;;
31724;SDS011;18306;40.960;14.836;2022-09-09T16:46:34;9.27;;;1.50;;
31724;SDS011;18306;40.960;14.836;2022-09-09T16:49:03;3.63;;;1.45;;
31724;SDS011;18306;40.960;14.836;2022-09-09T16:51:40;1.00;;;0.90;;
31724;SDS011;18306;40.960;14.836;2022-09-09T16:54:11;3.30;;;1.67;;
31724;SDS011;18306;40.960;14.836;2022-09-09T16:56:40;2.95;;;1.15;;
31724;SDS011;18306;40.960;14.836;2022-09-09T16:59:11;3.03;;;1.05;;
31724;SDS011;18306;40.960;14.836;2022-09-09T17:01:40;3.17;;;1.55;;
31724;SDS011;18306;40.960;14.836;2022-09-09T17:04:10;3.63;;;1.45;;
31724;SDS011;18306;40.960;14.836;2022-09-09T17:06:41;3.15;;;1.58;;
31724;SDS011;18306;40.960;14.836;2022-09-09T17:09:16;4.65;;;1.50;;
31724;SDS011;18306;40.960;14.836;2022-09-09T17:11:44;6.07;;;1.15;;
31724;SDS011;18306;40.960;14.836;2022-09-09T17:14:13;6.68;;;1.35;;
31724;SDS011;18306;40.960;14.836;2022-09-09T17:16:43;2.75;;;1.23;;
31724;SDS011;18306;40.960;14.836;2022-09-09T17:19:13;4.40;;;1.45;;
31724;SDS011;18306;40.960;14.836;2022-09-09T17:21:41;5.45;;;1.38;;